Time;durP1;ratioP1;P1;durP2;ratioP2;P2;SDS_P1;SDS_P2;PMS_P1;PMS_P2;Temp;Humidity;BMP_temperature;BMP_pressure;BME280_temperature;BME280_humidity;BME280_pressure;Samples;Min_cycle;Max_cycle;Signal;HPM_P1;HPM_P2
2021/05/15 00:01:33;;;;;;;25.70;23.38;;;;;;;10.80;80.33;100634.19;6428013;23;20345;-68
2021/05/15 00:04:05;;;;;;;25.23;22.92;;;;;;;10.76;79.67;100640.63;6429413;22;20009;-67
2021/05/15 00:06:36;;;;;;;26.60;24.02;;;;;;;10.73;80.97;100633.91;6428889;22;20340;-67
2021/05/15 00:09:08;;;;;;;25.55;23.17;;;;;;;10.77;80.60;100631.84;6427862;23;20013;-67
2021/05/15 00:11:40;;;;;;;26.67;24.10;;;;;;;10.77;80.60;100630.03;6429518;22;20009;-67
2021/05/15 00:14:11;;;;;;;24.83;22.40;;;;;;;10.81;80.51;100626.19;6428719;22;20225;-67
2021/05/15 00:16:43;;;;;;;26.17;23.75;;;;;;;10.85;79.94;100629.34;6428811;22;20016;-67
2021/05/15 00:19:14;;;;;;;26.13;23.80;;;;;;;10.82;80.70;100629.63;6429947;22;20443;-67
2021/05/15 00:21:45;;;;;;;26.80;24.20;;;;;;;10.82;81.18;100629.63;6428090;23;20253;-67
2021/05/15 00:24:17;;;;;;;26.23;23.88;;;;;;;10.78;81.41;100623.81;6428906;22;19997;-67
2021/05/15 00:26:48;;;;;;;25.55;23.20;;;;;;;10.82;81.11;100619.97;6428584;23;20001;-67
2021/05/15 00:29:19;;;;;;;25.88;23.50;;;;;;;10.79;79.93;100615.00;6428886;22;20023;-67
2021/05/15 00:31:51;;;;;;;27.42;24.83;;;;;;;10.81;81.01;100620.94;6428102;23;20009;-67
2021/05/15 00:34:22;;;;;;;28.38;25.77;;;;;;;10.80;81.07;100616.66;6426951;23;20005;-67
2021/05/15 00:36:53;;;;;;;27.65;25.05;;;;;;;10.78;81.36;100620.38;6428668;23;20344;-67
2021/05/15 00:39:24;;;;;;;28.45;25.88;;;;;;;10.74;81.42;100617.19;6428419;23;20001;-67
2021/05/15 00:41:56;;;;;;;25.58;23.27;;;;;;;10.73;81.01;100618.19;6428203;23;20009;-67
2021/05/15 00:46:58;;;;;;;24.25;21.95;;;;;;;10.69;80.81;100608.94;6428669;23;20321;-65
2021/05/15 00:49:29;;;;;;;24.27;21.98;;;;;;;10.68;79.65;100608.13;6428524;23;20496;-65
2021/05/15 00:52:01;;;;;;;23.33;21.13;;;;;;;10.66;80.48;100607.41;6428557;23;20066;-67
2021/05/15 00:54:35;;;;;;;21.95;19.95;;;;;;;10.66;80.18;100614.44;6427604;23;20005;-67
2021/05/15 00:57:09;;;;;;;22.90;20.67;;;;;;;10.64;80.08;100606.69;6428016;23;20021;-65
2021/05/15 00:59:40;;;;;;;;;;;;;;;10.91;78.31;100618.31;6430274;22;20375;-65
2021/05/15 01:02:12;;;;;;;21.25;19.23;;;;;;;10.67;80.52;100610.84;6428550;22;19982;-65
2021/05/15 01:04:44;;;;;;;21.25;19.15;;;;;;;10.62;80.51;100598.16;6429450;22;20001;-65
2021/05/15 01:07:15;;;;;;;21.83;19.73;;;;;;;10.61;80.69;100606.19;6429380;23;20087;-65
2021/05/15 01:09:46;;;;;;;20.83;18.73;;;;;;;10.65;80.48;100597.91;6429507;23;20009;-65
2021/05/15 01:12:17;;;;;;;20.13;18.33;;;;;;;10.63;79.66;100604.22;6429494;23;20340;-65
2021/05/15 01:14:49;;;;;;;19.83;18.00;;;;;;;10.56;79.96;100600.50;6429328;22;20084;-65
2021/05/15 01:17:20;;;;;;;19.70;17.90;;;;;;;10.53;79.77;100590.28;6429845;23;20016;-65
2021/05/15 01:19:53;;;;;;;20.52;18.52;;;;;;;10.51;80.07;100593.06;6429434;23;20012;-65
2021/05/15 01:22:24;;;;;;;19.52;17.63;;;;;;;10.47;80.01;100592.50;6428741;22;20032;-65
2021/05/15 01:24:55;;;;;;;19.33;17.40;;;;;;;10.44;80.02;100592.75;6429501;23;20001;-65
2021/05/15 01:27:27;;;;;;;20.83;18.83;;;;;;;10.39;80.36;100587.09;6429758;23;20009;-65
2021/05/15 01:29:58;;;;;;;20.10;18.20;;;;;;;10.34;80.29;100594.56;6429409;23;20001;-65
2021/05/15 01:32:29;;;;;;;19.85;17.88;;;;;;;10.34;80.15;100584.06;6429001;23;20062;-65
2021/05/15 01:35:00;;;;;;;19.00;17.10;;;;;;;10.26;80.83;100589.13;6429707;23;20088;-65
2021/05/15 01:37:32;;;;;;;20.27;18.17;;;;;;;10.27;80.49;100585.56;6429531;23;20001;-65
2021/05/15 01:40:06;;;;;;;19.08;17.27;;;;;;;10.21;81.19;100592.13;6429446;22;20001;-65
2021/05/15 01:42:37;;;;;;;21.17;18.65;;;;;;;10.17;81.41;100580.28;6428166;23;20017;-65
2021/05/15 01:45:09;;;;;;;19.35;16.77;;;;;;;10.21;81.01;100572.97;6428957;23;20001;-65
2021/05/15 01:47:40;;;;;;;19.73;17.70;;;;;;;10.23;80.68;100566.66;6428410;22;20333;-65
2021/05/15 01:50:14;;;;;;;22.02;18.77;;;;;;;10.14;80.60;100561.38;6428645;23;20008;-64
2021/05/15 01:52:45;;;;;;;21.83;19.38;;;;;;;10.08;80.67;100556.69;6427990;22;20027;-65
2021/05/15 01:55:21;;;;;;;25.27;19.88;;;;;;;10.02;80.83;100567.69;6427517;23;20014;-65
2021/05/15 01:57:52;;;;;;;23.88;20.20;;;;;;;9.93;80.83;100559.69;6427588;22;20001;-65
2021/05/15 02:00:24;;;;;;;25.27;19.35;;;;;;;10.08;80.36;100554.09;6427694;23;20023;-65
2021/05/15 02:02:55;;;;;;;23.75;19.08;;;;;;;9.88;79.72;100545.31;6428647;23;20080;-65
2021/05/15 02:05:26;;;;;;;25.40;19.67;;;;;;;9.83;80.26;100537.88;6532235;22;20009;-66
2021/05/15 02:07:57;;;;;;;25.02;20.55;;;;;;;9.72;80.33;100540.59;6428947;23;20497;-66
2021/05/15 02:10:29;;;;;;;26.38;19.73;;;;;;;9.68;79.76;100540.03;6428514;23;20084;-65
2021/05/15 02:13:00;;;;;;;23.75;19.08;;;;;;;9.60;79.68;100534.63;6429164;23;20009;-65
2021/05/15 02:15:31;;;;;;;26.83;19.65;;;;;;;9.54;79.63;100529.09;6428828;23;20526;-65
2021/05/15 02:18:04;;;;;;;26.35;20.08;;;;;;;9.50;80.64;100521.50;6427824;22;20378;-67
2021/05/15 02:20:35;;;;;;;28.65;21.05;;;;;;;9.44;80.20;100529.88;6429355;23;20016;-67
2021/05/15 02:23:08;;;;;;;25.92;20.17;;;;;;;9.35;81.12;100530.66;6531610;22;20005;-68
2021/05/15 02:25:42;;;;;;;25.52;20.13;;;;;;;9.41;81.08;100529.31;6428335;22;20013;-67
2021/05/15 02:28:17;;;;;;;29.95;21.05;;;;;;;9.31;81.03;100529.25;6430024;23;20004;-65
2021/05/15 02:30:49;;;;;;;27.05;21.02;;;;;;;9.32;81.09;100527.47;6428915;22;20004;-65
2021/05/15 02:33:21;;;;;;;25.98;19.80;;;;;;;9.29;80.66;100528.56;6429626;22;20001;-65
2021/05/15 02:35:52;;;;;;;25.05;19.90;;;;;;;9.28;80.80;100524.31;6428916;23;20009;-65
2021/05/15 02:38:24;;;;;;;25.58;20.38;;;;;;;9.27;81.16;100525.25;6429243;23;20347;-65
2021/05/15 02:40:56;;;;;;;28.13;21.08;;;;;;;9.23;81.88;100521.25;6429314;22;20009;-65
2021/05/15 02:43:27;;;;;;;31.60;22.30;;;;;;;9.26;82.05;100524.41;6429120;23;20447;-65
2021/05/15 02:45:58;;;;;;;27.05;19.92;;;;;;;9.32;81.49;100528.31;6429344;23;20096;-65
2021/05/15 02:48:30;;;;;;;26.35;21.75;;;;;;;9.30;82.06;100522.38;6429778;23;20013;-65
2021/05/15 02:51:01;;;;;;;31.38;20.88;;;;;;;9.35;81.63;100522.81;6428676;23;20080;-65
2021/05/15 02:53:32;;;;;;;29.52;22.35;;;;;;;9.35;81.85;100514.97;6428634;23;20465;-65
2021/05/15 02:56:04;;;;;;;30.17;21.02;;;;;;;9.41;81.30;100516.25;6429499;23;20087;-65
2021/05/15 02:58:35;;;;;;;27.83;20.70;;;;;;;9.43;81.48;100512.56;6429300;22;20005;-65
2021/05/15 03:01:06;;;;;;;27.33;20.80;;;;;;;9.43;81.34;100509.09;6428419;23;20444;-67
2021/05/15 03:03:37;;;;;;;32.15;21.70;;;;;;;9.42;82.23;100508.25;6427325;23;20539;-67
2021/05/15 03:06:09;;;;;;;33.78;22.63;;;;;;;9.40;82.25;100504.97;6532481;22;20215;-67
2021/05/15 03:08:40;;;;;;;28.25;22.00;;;;;;;9.44;81.70;100508.16;6429361;23;20013;-65
2021/05/15 03:11:11;;;;;;;30.95;22.17;;;;;;;9.43;82.51;100509.94;6428356;23;20020;-65
2021/05/15 03:13:43;;;;;;;31.05;22.75;;;;;;;9.43;82.26;100504.72;6428706;23;20088;-65
2021/05/15 03:16:14;;;;;;;30.35;21.83;;;;;;;9.47;82.21;100508.72;6429061;23;20398;-66
2021/05/15 03:18:45;;;;;;;31.67;22.02;;;;;;;9.42;82.73;100502.19;6428411;23;20065;-65
2021/05/15 03:21:16;;;;;;;32.13;22.20;;;;;;;9.38;82.81;100506.88;6428439;23;20009;-64
2021/05/15 03:23:48;;;;;;;29.33;22.98;;;;;;;9.38;82.45;100504.25;6428587;23;20496;-65
2021/05/15 03:26:19;;;;;;;30.00;22.70;;;;;;;9.34;82.52;100505.47;6532242;22;20432;-65
2021/05/15 03:28:50;;;;;;;28.13;22.80;;;;;;;9.35;82.61;100507.13;6428865;23;20009;-65
2021/05/15 03:31:22;;;;;;;29.33;24.23;;;;;;;9.30;83.48;100505.88;6428381;22;20037;-65
2021/05/15 03:33:53;;;;;;;30.20;24.30;;;;;;;9.33;82.95;100514.28;6428779;23;20001;-65
2021/05/15 03:36:26;;;;;;;29.55;23.55;;;;;;;9.32;83.22;100506.56;6428844;23;20013;-66
2021/05/15 03:38:57;;;;;;;29.17;23.85;;;;;;;9.31;83.03;100505.72;6428769;22;20009;-65
2021/05/15 03:41:28;;;;;;;26.27;23.42;;;;;;;9.34;83.16;100510.69;6428793;23;20009;-65
2021/05/15 03:44:00;;;;;;;26.90;23.40;;;;;;;9.36;83.54;100510.59;6428769;23;20154;-65
2021/05/15 03:46:31;;;;;;;29.70;25.27;;;;;;;9.34;83.29;100510.69;6428811;23;20005;-65
2021/05/15 03:49:03;;;;;;;28.48;25.52;;;;;;;9.33;83.38;100506.44;6428864;23;20004;-65
2021/05/15 03:51:35;;;;;;;30.70;25.33;;;;;;;9.31;84.35;100507.53;6428662;22;20005;-65
2021/05/15 03:54:07;;;;;;;28.80;24.98;;;;;;;9.38;83.45;100506.88;6428441;23;20028;-67
2021/05/15 03:56:38;;;;;;;27.30;24.48;;;;;;;9.39;83.25;100513.75;6429294;23;20076;-68
2021/05/15 03:59:09;;;;;;;30.48;26.05;;;;;;;9.42;83.88;100507.44;6428615;22;20011;-65
2021/05/15 04:01:41;;;;;;;32.38;25.52;;;;;;;9.43;83.56;100511.69;6424073;23;20009;-67
2021/05/15 04:04:13;;;;;;;29.90;25.98;;;;;;;9.41;83.56;100506.63;6428436;23;20012;-65
2021/05/15 04:06:44;;;;;;;30.98;25.80;;;;;;;9.40;84.09;100504.13;6426693;23;20186;-65
2021/05/15 04:09:15;;;;;;;30.27;27.02;;;;;;;9.46;83.79;100503.59;6428844;23;20092;-65
2021/05/15 04:11:46;;;;;;;29.40;26.30;;;;;;;9.48;83.57;100501.69;6428498;23;20012;-65
2021/05/15 04:14:27;;;;;;;28.50;25.35;;;;;;;9.48;83.44;100501.69;6427903;23;20005;-65
2021/05/15 04:19:38;;;;;;;29.80;26.60;;;;;;;9.47;83.81;100497.41;6428768;22;20016;-65
2021/05/15 04:22:10;;;;;;;32.10;25.98;;;;;;;9.49;83.23;100492.88;6428527;23;20456;-66
2021/05/15 04:24:41;;;;;;;31.55;26.33;;;;;;;9.50;83.79;100491.91;6428826;23;20001;-67
2021/05/15 04:27:13;;;;;;;33.30;25.02;;;;;;;9.52;83.27;100491.81;6427481;23;20016;-66
2021/05/15 04:29:45;;;;;;;32.65;26.02;;;;;;;9.50;83.20;100489.31;6427503;23;20332;-65
2021/05/15 04:32:16;;;;;;;32.28;25.42;;;;;;;9.49;83.35;100493.72;6428953;22;20005;-66
2021/05/15 04:34:47;;;;;;;30.17;25.35;;;;;;;9.52;82.96;100487.41;6428794;23;20057;-67
2021/05/15 04:37:19;;;;;;;28.92;25.10;;;;;;;9.51;83.49;100493.59;6429298;23;20066;-65
2021/05/15 04:39:50;;;;;;;32.45;25.65;;;;;;;9.53;83.35;100498.69;6429302;23;20005;-65
2021/05/15 04:42:21;;;;;;;31.02;25.42;;;;;;;9.54;83.11;100500.31;6429063;23;20356;-65
2021/05/15 04:44:53;;;;;;;32.25;26.23;;;;;;;9.47;83.80;100495.63;6430008;23;20000;-65
2021/05/15 04:47:24;;;;;;;36.08;27.65;;;;;;;9.47;83.62;100505.25;6428946;23;20419;-65
2021/05/15 04:49:55;;;;;;;33.47;27.75;;;;;;;9.46;83.96;100506.22;6429948;23;20532;-65
2021/05/15 04:52:26;;;;;;;32.60;26.85;;;;;;;9.46;83.73;100504.41;6429089;23;20039;-68
2021/05/15 04:54:58;;;;;;;33.08;26.38;;;;;;;9.47;83.53;100511.31;6428790;23;20005;-68
2021/05/15 04:57:29;;;;;;;35.45;28.40;;;;;;;9.45;83.97;100512.41;6429879;22;20005;-66
2021/05/15 05:00:00;;;;;;;37.85;27.00;;;;;;;9.45;83.83;100512.41;6429942;23;20053;-65
2021/05/15 05:02:32;;;;;;;36.17;26.60;;;;;;;9.50;83.86;100511.03;6427678;23;20021;-65
2021/05/15 05:05:03;;;;;;;40.03;27.90;;;;;;;9.47;84.12;100511.31;6429913;23;20370;-65
2021/05/15 05:07:35;;;;;;;33.80;27.15;;;;;;;9.48;84.12;100502.53;6429341;23;20084;-65
2021/05/15 05:10:06;;;;;;;36.08;27.52;;;;;;;9.52;84.05;100499.66;6429262;23;20381;-65
2021/05/15 05:12:38;;;;;;;37.08;27.42;;;;;;;9.50;84.02;100494.53;6429677;22;20019;-65
2021/05/15 05:15:09;;;;;;;36.47;26.50;;;;;;;9.53;83.79;100502.13;6428891;23;20012;-65
2021/05/15 05:17:40;;;;;;;37.70;27.42;;;;;;;9.49;84.12;100498.94;6429921;23;20009;-66
2021/05/15 05:20:12;;;;;;;35.60;27.65;;;;;;;9.52;83.76;100491.81;6429241;23;20428;-65
2021/05/15 05:22:43;;;;;;;35.95;27.38;;;;;;;9.53;83.80;100496.88;6428924;23;20001;-65
2021/05/15 05:25:17;;;;;;;36.25;27.42;;;;;;;9.55;83.12;100496.78;6429346;23;20046;-65
2021/05/15 05:27:48;;;;;;;37.67;28.02;;;;;;;9.59;84.21;100490.31;6429499;23;20501;-66
2021/05/15 05:30:21;;;;;;;38.83;27.63;;;;;;;9.59;83.74;100495.56;6429235;23;20047;-65
2021/05/15 05:32:53;;;;;;;37.78;27.27;;;;;;;9.67;83.42;100493.09;6429092;22;20130;-65
2021/05/15 05:35:24;;;;;;;36.42;26.85;;;;;;;9.72;83.79;100496.94;6429600;22;20080;-65
2021/05/15 05:37:56;;;;;;;38.00;28.42;;;;;;;9.80;83.22;100491.06;6429344;22;20001;-65
2021/05/15 05:40:27;;;;;;;34.97;27.38;;;;;;;9.78;83.02;100486.94;6429470;23;20107;-65
2021/05/15 05:42:58;;;;;;;38.10;28.23;;;;;;;9.89;82.81;100497.28;6428703;23;20015;-65
2021/05/15 05:45:30;;;;;;;40.72;27.02;;;;;;;9.96;82.95;100488.78;6429280;23;20005;-65
2021/05/15 05:48:01;;;;;;;39.50;28.30;;;;;;;10.02;82.80;100497.03;6429018;23;20005;-65
2021/05/15 05:50:32;;;;;;;35.88;27.25;;;;;;;10.01;82.36;100495.38;6428733;23;20001;-66
2021/05/15 05:53:04;;;;;;;38.67;28.80;;;;;;;10.05;82.72;100504.63;6429108;22;20015;-65
2021/05/15 05:55:35;;;;;;;41.95;29.52;;;;;;;10.07;82.58;100498.25;6428244;23;20416;-66
2021/05/15 05:58:07;;;;;;;40.67;27.98;;;;;;;10.09;81.97;100496.34;6429301;23;20009;-66
2021/05/15 06:00:38;;;;;;;40.55;29.02;;;;;;;10.10;81.77;100497.19;6429579;22;20009;-66
2021/05/15 06:03:09;;;;;;;42.53;29.13;;;;;;;10.09;80.95;100487.69;6424035;23;20048;-66
2021/05/15 06:05:40;;;;;;;38.13;27.52;;;;;;;10.18;81.04;100499.94;6429418;22;20088;-66
2021/05/15 06:08:12;;;;;;;36.25;27.02;;;;;;;10.21;81.06;100500.50;6429027;23;20402;-66
2021/05/15 06:10:43;;;;;;;38.30;27.83;;;;;;;10.24;80.65;100496.78;6428619;23;20020;-66
2021/05/15 06:13:14;;;;;;;40.72;28.85;;;;;;;10.35;80.63;100495.88;6429407;22;20381;-66
2021/05/15 06:15:46;;;;;;;38.58;27.92;;;;;;;10.33;80.34;100493.38;6428446;23;20360;-66
2021/05/15 06:18:18;;;;;;;40.03;29.17;;;;;;;10.41;80.05;100488.28;6428537;22;20296;-66
2021/05/15 06:20:49;;;;;;;41.65;29.42;;;;;;;10.40;79.52;100477.94;6429371;22;20005;-66
2021/05/15 06:23:20;;;;;;;42.72;31.90;;;;;;;10.37;79.37;100483.44;6428637;22;20005;-66
2021/05/15 06:25:52;;;;;;;40.95;30.42;;;;;;;10.37;79.17;100489.50;6428356;23;20017;-66
2021/05/15 06:28:24;;;;;;;40.58;30.83;;;;;;;10.37;79.11;100479.03;6429102;22;20001;-66
2021/05/15 06:30:55;;;;;;;45.67;31.52;;;;;;;10.50;78.69;100483.19;6426174;23;20001;-66
2021/05/15 06:33:26;;;;;;;42.17;32.05;;;;;;;10.55;79.15;100488.84;6428888;23;20621;-66
2021/05/15 06:35:58;;;;;;;44.10;32.58;;;;;;;10.70;78.95;100480.41;6427677;23;20012;-66
2021/05/15 06:38:29;;;;;;;41.63;30.63;;;;;;;10.87;79.11;100478.88;6428505;22;20008;-66
2021/05/15 06:41:00;;;;;;;41.25;31.20;;;;;;;10.89;78.24;100479.53;6429560;22;20123;-66
2021/05/15 06:43:32;;;;;;;44.55;31.83;;;;;;;10.90;78.07;100468.09;6428583;23;20001;-66
2021/05/15 06:46:03;;;;;;;42.38;30.75;;;;;;;10.89;76.54;100469.06;6531420;22;20031;-66
2021/05/15 06:48:34;;;;;;;44.10;31.55;;;;;;;11.12;77.38;100469.56;6428578;23;20299;-65
2021/05/15 06:51:06;;;;;;;39.30;30.88;;;;;;;11.22;76.03;100469.53;6428067;23;20468;-65
2021/05/15 06:53:37;;;;;;;40.63;31.95;;;;;;;11.23;75.27;100468.56;6428152;23;20008;-65
2021/05/15 06:56:08;;;;;;;37.10;28.05;;;;;;;11.34;74.07;100463.13;6428730;23;20096;-66
2021/05/15 06:58:42;;;;;;;35.58;27.17;;;;;;;11.45;74.19;100457.69;6428451;23;20005;-65
2021/05/15 07:01:13;;;;;;;29.23;24.02;;;;;;;11.54;72.22;100449.94;6428681;23;20015;-66
2021/05/15 07:03:44;;;;;;;29.15;23.92;;;;;;;11.44;69.29;100455.25;6426432;23;20088;-66
2021/05/15 07:06:16;;;;;;;27.58;22.33;;;;;;;11.64;69.87;100458.59;6427900;23;20349;-66
2021/05/15 07:08:47;;;;;;;26.48;20.80;;;;;;;11.65;69.10;100453.19;6428224;23;20009;-66
2021/05/15 07:11:18;;;;;;;30.55;22.60;;;;;;;11.83;69.61;100455.88;6427896;23;20009;-66
2021/05/15 07:13:49;;;;;;;29.38;23.20;;;;;;;11.91;69.10;100455.13;6428475;22;20012;-66
2021/05/15 07:16:21;;;;;;;29.58;23.48;;;;;;;12.17;69.35;100444.72;6428274;23;20009;-66
2021/05/15 07:18:52;;;;;;;27.63;22.83;;;;;;;12.37;68.58;100446.22;6428217;22;20005;-66
2021/05/15 07:21:27;;;;;;;26.48;22.55;;;;;;;12.47;67.55;100454.03;6427628;23;20333;-66
2021/05/15 07:23:58;;;;;;;26.35;22.55;;;;;;;12.52;66.82;100449.13;6427437;22;20466;-66
2021/05/15 07:26:30;;;;;;;32.30;25.63;;;;;;;12.45;66.86;100449.88;6428240;23;20004;-66
2021/05/15 07:29:02;;;;;;;28.73;23.98;;;;;;;12.26;66.13;100443.00;6429163;22;20032;-66
2021/05/15 07:31:33;;;;;;;33.38;26.35;;;;;;;12.21;66.44;100438.19;6428253;22;20005;-66
2021/05/15 07:34:05;;;;;;;30.27;24.85;;;;;;;12.21;66.82;100442.63;6428111;23;20055;-67
2021/05/15 07:36:36;;;;;;;30.05;24.40;;;;;;;12.23;67.07;100428.34;6427934;23;20559;-67
2021/05/15 07:39:07;;;;;;;31.63;24.38;;;;;;;12.30;66.83;100434.66;6427600;23;20009;-66
2021/05/15 07:41:39;;;;;;;28.52;24.40;;;;;;;12.29;66.75;100427.75;6427902;23;20444;-66
2021/05/15 07:44:10;;;;;;;32.45;25.30;;;;;;;12.22;66.63;100424.09;6428340;22;20004;-66
2021/05/15 07:46:42;;;;;;;31.73;25.30;;;;;;;12.24;67.26;100426.56;6427945;23;20020;-66
2021/05/15 07:49:14;;;;;;;31.95;25.60;;;;;;;12.27;66.91;100426.25;6428490;22;20025;-66
2021/05/15 07:51:46;;;;;;;30.67;25.33;;;;;;;12.26;66.59;100416.72;6427289;23;20088;-66
2021/05/15 07:54:17;;;;;;;33.40;28.23;;;;;;;12.39;67.36;100427.69;6428056;22;20597;-66
2021/05/15 07:56:49;;;;;;;34.63;27.92;;;;;;;12.48;66.77;100431.19;6427738;23;20009;-66
2021/05/15 07:59:21;;;;;;;32.17;25.90;;;;;;;12.38;65.55;100431.28;6426696;22;20009;-66
2021/05/15 08:01:53;;;;;;;32.55;26.40;;;;;;;12.63;66.13;100432.28;6427593;22;20017;-67
2021/05/15 08:04:24;;;;;;;30.20;24.83;;;;;;;12.84;65.63;100422.25;6427310;23;20040;-66
2021/05/15 08:06:55;;;;;;;31.35;24.92;;;;;;;13.17;64.85;100422.41;6427997;23;20019;-66
2021/05/15 08:09:27;;;;;;;31.23;24.63;;;;;;;13.38;63.24;100414.16;6426766;23;20016;-67
2021/05/15 08:11:58;;;;;;;32.97;24.83;;;;;;;13.69;63.69;100410.97;6426865;23;20074;-66
2021/05/15 08:14:30;;;;;;;29.27;24.23;;;;;;;13.86;62.31;100407.38;6427289;22;20140;-66
2021/05/15 08:17:01;;;;;;;28.70;23.73;;;;;;;14.05;61.51;100401.81;6428537;22;20009;-66
2021/05/15 08:19:32;;;;;;;30.10;23.83;;;;;;;14.18;60.83;100403.97;6427148;22;20001;-66
2021/05/15 08:22:04;;;;;;;29.90;24.75;;;;;;;14.15;60.62;100406.91;6427214;23;20009;-66
2021/05/15 08:24:35;;;;;;;28.95;23.23;;;;;;;14.17;60.26;100412.00;6426738;23;20001;-68
2021/05/15 08:27:06;;;;;;;28.98;23.63;;;;;;;14.17;60.18;100415.50;6427532;23;20157;-66
2021/05/15 08:29:37;;;;;;;27.33;22.40;;;;;;;14.09;60.06;100413.69;6530498;22;20005;-66
2021/05/15 08:32:09;;;;;;;29.60;23.38;;;;;;;14.09;60.64;100410.19;6426896;23;20013;-67
2021/05/15 08:34:40;;;;;;;29.52;23.70;;;;;;;14.00;59.68;100403.28;6427151;23;20051;-67
2021/05/15 08:37:11;;;;;;;31.42;25.38;;;;;;;13.87;60.44;100409.84;6427074;22;20083;-67
2021/05/15 08:39:43;;;;;;;29.55;24.02;;;;;;;13.95;61.01;100405.59;6425691;22;20036;-67
2021/05/15 08:42:19;;;;;;;29.38;24.60;;;;;;;14.05;61.26;100409.72;6427726;23;20005;-67
2021/05/15 08:44:50;;;;;;;26.90;23.00;;;;;;;14.07;60.74;100404.28;6427711;22;20463;-67
2021/05/15 08:47:21;;;;;;;30.70;24.75;;;;;;;14.18;60.83;100403.13;6426815;23;20183;-67
2021/05/15 08:49:53;;;;;;;30.98;23.73;;;;;;;14.24;60.98;100400.66;6426790;22;20012;-67
2021/05/15 08:52:25;;;;;;;31.58;24.40;;;;;;;14.28;60.13;100387.97;6427151;22;20026;-67
2021/05/15 08:54:56;;;;;;;30.35;23.98;;;;;;;14.32;60.41;100384.03;6427597;22;20336;-67
2021/05/15 08:57:27;;;;;;;27.23;21.88;;;;;;;14.44;59.29;100385.34;6426250;22;20064;-67
2021/05/15 08:59:59;;;;;;;28.90;22.15;;;;;;;14.57;59.27;100377.75;6425822;23;20070;-67
2021/05/15 09:02:30;;;;;;;27.50;22.38;;;;;;;14.87;59.73;100380.66;6426973;23;20075;-67
2021/05/15 09:05:03;;;;;;;26.33;21.38;;;;;;;15.13;58.93;100375.16;6427072;22;20069;-67
2021/05/15 09:07:35;;;;;;;26.38;21.45;;;;;;;15.50;57.78;100374.47;6425969;22;20009;-67
2021/05/15 09:10:07;;;;;;;24.30;20.67;;;;;;;15.33;55.89;100368.44;6427409;22;20621;-67
2021/05/15 09:12:38;;;;;;;25.13;20.55;;;;;;;15.36;56.19;100366.47;6426353;23;20075;-67
2021/05/15 09:15:11;;;;;;;24.27;19.15;;;;;;;15.59;55.41;100364.69;6427451;23;20005;-67
2021/05/15 09:17:50;;;;;;;24.80;20.38;;;;;;;15.69;56.19;100365.31;6424775;22;20395;-67
2021/05/15 09:20:26;;;;;;;23.50;20.45;;;;;;;15.67;55.93;100354.09;6422718;22;20084;-67
2021/05/15 09:22:58;;;;;;;23.25;18.48;;;;;;;15.47;55.51;100350.25;6425249;23;20718;-67
2021/05/15 09:25:32;;;;;;;25.35;19.73;;;;;;;15.47;56.18;100344.97;6424945;23;20076;-67
2021/05/15 09:28:04;;;;;;;21.08;17.77;;;;;;;15.38;55.95;100348.63;6426727;22;20032;-67
2021/05/15 09:30:36;;;;;;;20.63;17.02;;;;;;;15.23;55.71;100349.38;6423604;22;20080;-67
2021/05/15 09:33:12;;;;;;;17.80;15.90;;;;;;;15.30;56.53;100338.94;6424232;23;20004;-67
2021/05/15 09:35:43;;;;;;;19.92;17.27;;;;;;;15.22;55.96;100337.16;6425917;23;20019;-67
2021/05/15 09:38:15;;;;;;;17.35;14.57;;;;;;;15.30;55.77;100329.22;6427633;23;20009;-67
2021/05/15 09:40:49;;;;;;;16.98;14.93;;;;;;;15.55;56.51;100329.06;6502651;22;20013;-67
2021/05/15 09:43:20;;;;;;;17.92;15.80;;;;;;;15.60;56.26;100324.06;6426300;23;20111;-67
2021/05/15 09:45:51;;;;;;;19.08;15.73;;;;;;;15.57;56.10;100321.81;6425515;23;20044;-67
2021/05/15 09:48:35;;;;;;;15.52;13.93;;;;;;;15.73;55.60;100319.06;6427591;23;20001;-67
2021/05/15 09:51:17;;;;;;;15.38;13.57;;;;;;;15.84;55.22;100319.66;6427786;22;20013;-67
2021/05/15 09:53:48;;;;;;;16.25;13.27;;;;;;;15.80;55.34;100314.72;6427201;22;20012;-67
2021/05/15 09:56:31;;;;;;;15.50;13.77;;;;;;;15.73;55.08;100305.88;6531259;22;20332;-67
2021/05/15 09:59:03;;;;;;;13.43;12.05;;;;;;;15.78;55.31;100303.50;6428000;22;20040;-67
2021/05/15 10:01:44;;;;;;;18.17;13.75;;;;;;;15.67;55.71;100303.91;6426180;22;20436;-67
2021/05/15 10:04:22;;;;;;;19.90;13.27;;;;;;;15.51;55.90;100299.56;6428217;22;20345;-67
2021/05/15 10:06:55;;;;;;;12.75;11.05;;;;;;;15.21;56.38;100306.50;6428236;23;20005;-67
2021/05/15 10:09:31;;;;;;;13.10;11.40;;;;;;;15.03;60.53;100313.84;6428791;22;20027;-67
2021/05/15 10:12:05;;;;;;;13.73;11.93;;;;;;;14.64;61.97;100306.75;6427232;23;20009;-67
2021/05/15 10:14:36;;;;;;;12.77;11.15;;;;;;;14.47;62.89;100298.03;6427581;22;20005;-67
2021/05/15 10:17:08;;;;;;;12.23;10.90;;;;;;;14.57;63.29;100300.50;6426649;23;20420;-67
2021/05/15 10:19:39;;;;;;;11.30;9.23;;;;;;;14.58;62.91;100302.13;6428618;23;20001;-67
2021/05/15 10:22:10;;;;;;;10.02;9.02;;;;;;;14.69;62.26;100288.59;6427422;23;20112;-68
2021/05/15 10:24:49;;;;;;;10.20;8.52;;;;;;;14.96;61.95;100291.78;6427169;22;20001;-67
2021/05/15 10:27:20;;;;;;;10.77;9.52;;;;;;;15.43;60.86;100281.13;6427863;23;20397;-67
2021/05/15 10:29:53;;;;;;;12.40;10.10;;;;;;;15.92;61.09;100280.78;6427204;22;20104;-67
2021/05/15 10:32:26;;;;;;;11.60;8.43;;;;;;;16.15;57.03;100272.81;6528130;22;20065;-67
2021/05/15 10:34:59;;;;;;;;;;;;;;;16.44;57.12;100273.81;6425607;23;20323;-67
2021/05/15 10:37:35;;;;;;;13.15;10.73;;;;;;;16.19;55.22;100260.06;6531045;22;19905;-67
2021/05/15 10:40:15;;;;;;;9.88;8.88;;;;;;;16.05;56.34;100265.13;6428021;23;20009;-67
2021/05/15 10:42:58;;;;;;;8.48;7.00;;;;;;;16.09;56.48;100255.03;6427450;23;20012;-67
2021/05/15 10:45:37;;;;;;;9.25;7.47;;;;;;;16.11;56.50;100253.03;6426583;22;20005;-67
2021/05/15 10:48:13;;;;;;;8.55;7.25;;;;;;;16.21;56.82;100245.66;6425412;22;20028;-67
2021/05/15 10:50:58;;;;;;;7.30;6.43;;;;;;;16.28;55.71;100245.75;6425503;23;20076;-67
2021/05/15 10:53:31;;;;;;;7.63;5.35;;;;;;;16.47;53.60;100244.38;6425953;23;20009;-66
2021/05/15 10:56:13;;;;;;;5.88;3.90;;;;;;;16.42;53.20;100244.09;6427769;23;20081;-67
2021/05/15 10:58:47;;;;;;;6.38;3.80;;;;;;;16.45;53.27;100247.22;6426091;23;20337;-66
2021/05/15 11:01:25;;;;;;;5.13;3.28;;;;;;;16.25;52.08;100244.31;6426913;22;20005;-66
2021/05/15 11:03:57;;;;;;;5.47;3.00;;;;;;;16.19;52.44;100241.56;6428224;22;20038;-66
2021/05/15 11:06:30;;;;;;;6.22;2.90;;;;;;;16.30;51.43;100238.47;6428205;22;20032;-66
2021/05/15 11:09:06;;;;;;;4.93;3.25;;;;;;;16.26;51.82;100247.75;6428878;22;20432;-66
2021/05/15 11:11:39;;;;;;;6.03;3.17;;;;;;;16.27;52.33;100230.88;6426833;22;20009;-66
2021/05/15 11:14:33;;;;;;;4.75;3.08;;;;;;;16.46;52.08;100225.03;6427663;23;20472;-66
2021/05/15 11:17:12;;;;;;;3.85;2.60;;;;;;;16.54;52.73;100222.31;6428813;22;20011;-66
2021/05/15 11:19:55;;;;;;;3.95;2.78;;;;;;;16.80;51.51;100222.84;6427226;23;20455;-67
2021/05/15 11:22:40;;;;;;;5.10;2.47;;;;;;;16.83;52.00;100223.31;6427737;23;20089;-66
2021/05/15 11:25:14;;;;;;;4.72;3.38;;;;;;;16.96;51.99;100214.69;6425404;23;20035;-66
2021/05/15 11:27:59;;;;;;;5.28;3.05;;;;;;;16.88;51.65;100214.81;6426011;22;20255;-66
2021/05/15 11:30:45;;;;;;;7.07;3.15;;;;;;;16.98;51.06;100202.09;6427455;23;20008;-67
2021/05/15 11:33:21;;;;;;;4.18;2.75;;;;;;;17.13;51.73;100200.22;6427325;23;20051;-66
2021/05/15 11:35:57;;;;;;;5.55;2.95;;;;;;;17.08;49.38;100197.28;6427404;23;20092;-66
2021/05/15 11:38:31;;;;;;;5.93;2.92;;;;;;;17.18;49.81;100189.06;6427678;23;20005;-66
2021/05/15 11:41:05;;;;;;;5.43;2.72;;;;;;;17.13;49.60;100180.88;6427819;23;20032;-66
2021/05/15 11:43:38;;;;;;;5.13;2.70;;;;;;;16.98;48.90;100181.75;6428028;22;20001;-66